createdAt,value
2022-08-04T00:00:03.844Z,86.40
2022-08-04T00:05:11.414Z,86.50
2022-08-04T00:10:20.383Z,86.70
2022-08-04T00:15:25.685Z,87.00
2022-08-04T00:20:33.097Z,87.10
2022-08-04T00:25:40.576Z,87.30
2022-08-04T00:30:45.831Z,87.40
2022-08-04T00:35:50.543Z,87.60
2022-08-04T00:41:05.390Z,87.90
2022-08-04T00:46:41.014Z,88.20
2022-08-04T00:52:33.448Z,88.40
2022-08-04T00:57:34.412Z,88.70
2022-08-04T01:02:51.551Z,88.90
2022-08-04T01:08:09.890Z,89.00
2022-08-04T01:13:34.649Z,89.30
2022-08-04T01:18:50.132Z,89.70
2022-08-04T01:24:20.717Z,89.50
2022-08-04T01:29:30.467Z,90.30
2022-08-04T01:34:52.407Z,90.00
2022-08-04T01:40:04.235Z,90.10
2022-08-04T01:45:11.884Z,90.20
2022-08-04T01:50:15.794Z,90.30
2022-08-04T01:55:20.594Z,90.40
2022-08-04T02:00:27.882Z,90.40
2022-08-04T02:06:03.430Z,90.60
2022-08-04T02:11:04.986Z,90.60
2022-08-04T02:16:17.618Z,90.70
2022-08-04T02:21:22.693Z,90.80
2022-08-04T02:26:30.048Z,90.80
2022-08-04T02:31:40.497Z,91.00
2022-08-04T02:36:44.638Z,91.10
2022-08-04T02:41:49.220Z,91.10
2022-08-04T02:46:55.638Z,91.30
2022-08-04T02:51:59.533Z,91.40
2022-08-04T02:57:08.345Z,91.50
2022-08-04T03:02:13.607Z,91.60
2022-08-04T03:07:53.898Z,92.00
2022-08-04T03:13:29.412Z,91.80
2022-08-04T03:19:00.796Z,91.80
2022-08-04T03:24:53.301Z,92.00
2022-08-04T03:30:07.656Z,92.10
2022-08-04T03:35:40.558Z,92.20
2022-08-04T03:41:05.359Z,92.30
2022-08-04T03:46:54.153Z,92.40
2022-08-04T03:52:25.166Z,92.60
2022-08-04T03:57:53.332Z,93.00
2022-08-04T04:03:30.557Z,92.70
2022-08-04T04:08:54.621Z,93.10
2022-08-04T04:14:16.706Z,92.80
2022-08-04T04:19:52.513Z,92.90
2022-08-04T04:25:32.135Z,93.00
2022-08-04T04:30:46.936Z,93.10
2022-08-04T04:36:04.763Z,93.00
2022-08-04T04:41:29.311Z,93.00
2022-08-04T04:46:42.288Z,93.20
2022-08-04T04:51:50.916Z,93.20
2022-08-04T04:57:06.117Z,93.20
2022-08-04T05:02:35.690Z,93.10
2022-08-04T05:08:44.990Z,93.30
2022-08-04T05:14:34.555Z,93.30
2022-08-04T05:19:21.691Z,93.50
2022-08-04T05:24:26.890Z,93.50
2022-08-04T05:29:36.458Z,93.60
2022-08-04T05:34:43.513Z,93.60
2022-08-04T05:39:49.615Z,93.70
2022-08-04T05:44:56.440Z,93.70
2022-08-04T05:50:03.046Z,93.70
2022-08-04T05:55:08.804Z,93.80
2022-08-04T06:00:38.776Z,93.80
2022-08-04T06:05:39.173Z,94.00
2022-08-04T06:10:45.843Z,94.20
2022-08-04T06:15:51.790Z,94.10
2022-08-04T06:20:55.891Z,94.10
2022-08-04T06:26:02.643Z,94.10
2022-08-04T06:32:31.310Z,94.00
2022-08-04T06:36:36.825Z,94.00
2022-08-04T06:42:02.551Z,94.40
2022-08-04T06:47:08.198Z,94.00
2022-08-04T06:52:19.533Z,93.80
2022-08-04T06:57:28.964Z,93.80
2022-08-04T07:02:40.290Z,93.60
2022-08-04T07:07:57.457Z,93.70
2022-08-04T07:13:03.456Z,93.60
2022-08-04T07:18:08.914Z,93.60
2022-08-04T07:23:17.600Z,93.50
2022-08-04T07:28:22.796Z,93.40
2022-08-04T07:33:29.398Z,93.40
2022-08-04T07:38:34.028Z,93.40
2022-08-04T07:43:42.018Z,93.40
2022-08-04T07:48:47.205Z,93.30
2022-08-04T07:53:55.224Z,93.20
2022-08-04T07:59:01.074Z,93.30
2022-08-04T08:04:08.617Z,93.20
2022-08-04T08:09:14.934Z,93.20
2022-08-04T08:14:20.026Z,93.20
2022-08-04T08:19:25.184Z,93.20
2022-08-04T08:24:29.519Z,93.10
2022-08-04T08:29:35.602Z,93.00
2022-08-04T08:34:41.115Z,92.80
2022-08-04T08:39:52.560Z,92.80
2022-08-04T08:45:35.015Z,92.60
2022-08-04T08:51:19.431Z,92.50
2022-08-04T08:56:35.516Z,92.40
2022-08-04T09:01:52.942Z,92.30
2022-08-04T09:07:11.768Z,91.90
2022-08-04T09:12:25.857Z,91.80
2022-08-04T09:17:34.908Z,91.90
2022-08-04T09:22:50.742Z,92.00
2022-08-04T09:27:56.545Z,91.80
2022-08-04T09:33:11.777Z,92.10
2022-08-04T09:38:30.956Z,91.70
2022-08-04T09:43:59.488Z,91.50
2022-08-04T09:49:17.593Z,91.60
2022-08-04T09:54:30.647Z,91.70
2022-08-04T09:59:43.507Z,91.90
2022-08-04T10:04:50.599Z,92.10
2022-08-04T10:10:24.348Z,92.10
2022-08-04T10:15:35.303Z,92.30
2022-08-04T10:21:04.662Z,92.70
2022-08-04T10:26:31.807Z,92.90
2022-08-04T10:31:59.777Z,93.20
2022-08-04T10:37:13.321Z,93.40
2022-08-04T10:42:26.220Z,93.70
2022-08-04T10:47:45.361Z,94.00
2022-08-04T10:53:04.456Z,94.20
2022-08-04T10:58:17.808Z,94.10
2022-08-04T11:03:26.095Z,94.10
2022-08-04T11:08:35.888Z,94.20
2022-08-04T11:13:50.949Z,94.20
2022-08-04T11:19:07.911Z,94.30
2022-08-04T11:24:18.263Z,94.30
2022-08-04T11:29:29.814Z,94.30
2022-08-04T11:34:36.699Z,94.10
2022-08-04T11:39:47.449Z,94.40
2022-08-04T11:44:57.112Z,93.80
2022-08-04T11:50:07.179Z,93.70
2022-08-04T11:55:15.870Z,93.50
2022-08-04T12:00:22.575Z,93.40
2022-08-04T12:05:37.041Z,93.50
2022-08-04T12:10:47.575Z,93.40
2022-08-04T12:16:08.933Z,93.30
2022-08-04T12:21:16.837Z,93.20
2022-08-04T12:26:25.662Z,93.20
2022-08-04T12:31:37.751Z,93.00
2022-08-04T12:36:48.104Z,92.90
2022-08-04T12:42:04.829Z,92.70
2022-08-04T12:47:26.245Z,92.70
2022-08-04T12:58:14.325Z,91.90
2022-08-04T13:03:23.917Z,92.20
2022-08-04T13:08:28.076Z,92.10
2022-08-04T13:13:37.906Z,92.00
2022-08-04T13:18:50.228Z,91.50
2022-08-04T13:24:20.683Z,91.60
2022-08-04T13:29:58.251Z,91.50
2022-08-04T13:34:53.415Z,91.10
2022-08-04T13:39:58.549Z,91.00
2022-08-04T13:45:02.787Z,91.00
2022-08-04T13:50:19.531Z,90.90
2022-08-04T13:55:29.436Z,90.50
2022-08-04T14:00:44.260Z,90.20
2022-08-04T14:06:09.421Z,90.20
2022-08-04T14:12:06.143Z,90.00
2022-08-04T14:16:38.190Z,89.30
2022-08-04T14:21:43.288Z,89.10
2022-08-04T14:26:47.091Z,88.80
2022-08-04T14:31:57.716Z,88.10
2022-08-04T14:37:17.782Z,88.20
2022-08-04T14:42:41.624Z,87.10
2022-08-04T14:47:52.756Z,86.30
2022-08-04T14:53:04.757Z,85.70
2022-08-04T14:58:33.694Z,85.10
2022-08-04T15:03:33.075Z,84.90
2022-08-04T15:08:38.696Z,85.90
2022-08-04T15:13:42.581Z,85.10
2022-08-04T15:18:49.157Z,85.00
2022-08-04T15:23:55.562Z,84.60
2022-08-04T15:29:07.905Z,84.50
2022-08-04T15:34:14.792Z,84.10
2022-08-04T15:39:29.528Z,84.10
2022-08-04T15:45:10.587Z,83.60
2022-08-04T15:50:15.144Z,83.50
2022-08-04T15:55:35.781Z,82.80
2022-08-04T16:01:14.914Z,82.60
2022-08-04T16:06:46.863Z,82.10
2022-08-04T16:11:52.526Z,81.80
2022-08-04T16:16:56.511Z,81.70
2022-08-04T16:22:03.041Z,81.50
2022-08-04T16:27:09.713Z,81.10
2022-08-04T16:32:22.139Z,81.10
2022-08-04T16:37:34.472Z,80.90
2022-08-04T16:42:39.822Z,80.10
2022-08-04T16:48:04.166Z,79.60
2022-08-04T16:53:14.619Z,78.60
2022-08-04T16:58:50.677Z,78.90
2022-08-04T17:04:05.530Z,78.20
2022-08-04T17:09:15.230Z,78.00
2022-08-04T17:14:25.603Z,77.80
2022-08-04T17:19:29.692Z,77.90
2022-08-04T17:24:35.077Z,77.60
2022-08-04T17:29:43.400Z,77.90
2022-08-04T17:34:50.190Z,77.50
2022-08-04T17:39:54.691Z,77.00
2022-08-04T17:45:49.053Z,77.20
2022-08-04T17:55:58.664Z,77.00
2022-08-04T18:01:28.533Z,76.90
2022-08-04T18:06:32.702Z,77.40
2022-08-04T18:11:42.256Z,76.30
2022-08-04T18:16:47.518Z,76.30
2022-08-04T18:22:01.373Z,76.10
2022-08-04T18:27:16.065Z,76.20
2022-08-04T18:32:24.008Z,76.00
2022-08-04T18:38:06.466Z,76.00
2022-08-04T18:43:03.683Z,75.80
2022-08-04T18:48:14.464Z,75.10
2022-08-04T18:53:18.683Z,75.00
2022-08-04T18:58:27.609Z,74.90
2022-08-04T19:03:33.180Z,74.00
2022-08-04T19:08:42.306Z,73.60
2022-08-04T19:13:46.546Z,73.60
2022-08-04T19:19:05.926Z,73.70
2022-08-04T19:24:32.769Z,73.10
2022-08-04T19:29:37.304Z,73.10
2022-08-04T19:34:46.415Z,73.70
2022-08-04T19:39:51.798Z,72.60
2022-08-04T19:44:56.238Z,72.10
2022-08-04T19:50:04.909Z,71.90
2022-08-04T19:55:14.647Z,72.10
2022-08-04T20:00:33.119Z,71.70
2022-08-04T20:05:53.127Z,71.50
2022-08-04T20:11:00.179Z,71.00
2022-08-04T20:16:04.229Z,71.40
2022-08-04T20:21:18.877Z,71.40
2022-08-04T20:26:27.844Z,71.50
2022-08-04T20:31:31.891Z,71.40
2022-08-04T20:36:36.942Z,71.40
2022-08-04T20:41:40.786Z,71.50
2022-08-04T20:46:49.080Z,71.50
2022-08-04T20:51:58.733Z,71.70
2022-08-04T20:57:02.882Z,71.90
2022-08-04T21:02:07.919Z,71.90
2022-08-04T21:07:22.996Z,72.40
2022-08-04T21:12:29.096Z,73.70
2022-08-04T21:17:56.577Z,75.20
2022-08-04T21:22:59.624Z,78.30
2022-08-04T21:28:05.850Z,80.30
2022-08-04T21:33:12.525Z,81.10
2022-08-04T21:38:20.153Z,82.40
2022-08-04T21:43:29.966Z,83.20
2022-08-04T21:48:48.654Z,84.40
2022-08-04T21:53:54.815Z,85.10
2022-08-04T21:58:58.963Z,85.20
2022-08-04T22:04:02.682Z,86.00
2022-08-04T22:09:14.706Z,86.20
2022-08-04T22:14:27.463Z,87.10
2022-08-04T22:19:40.693Z,88.00
2022-08-04T22:25:06.320Z,88.60
2022-08-04T22:30:18.094Z,89.30
2022-08-04T22:35:35.482Z,89.50
2022-08-04T22:40:50.083Z,89.40
2022-08-04T22:45:54.863Z,90.40
2022-08-04T22:50:59.767Z,90.20
2022-08-04T22:56:10.271Z,90.50
2022-08-04T23:01:15.616Z,90.30
2022-08-04T23:06:19.477Z,90.40
2022-08-04T23:11:34.830Z,90.50
2022-08-04T23:16:40.803Z,90.50
2022-08-04T23:21:47.285Z,90.70
2022-08-04T23:26:53.022Z,90.90
2022-08-04T23:31:59.719Z,90.70
2022-08-04T23:37:04.024Z,90.80
2022-08-04T23:42:09.267Z,90.90
2022-08-04T23:48:15.873Z,90.90
2022-08-04T23:52:43.431Z,91.00
2022-08-04T23:58:05.861Z,91.10
